Time,TemperatureF,DewpointF,PressureIn,WindDirection,WindDirectionDegrees,WindSpeedMPH,WindSpeedGustMPH,Humidity,HourlyPrecipIn,Conditions,Clouds,dailyrainin,SolarRadiationWatts/m^2,SoftwareType,DateUTC
2013-06-20 00:02:00,74.0,72.0,-100.00,NE,56,2.0,2.0,93,0.00,,,0.53,0.000000,,2013-06-20 05:02:00,
2013-06-20 00:12:00,74.0,72.0,-100.00,NE,56,2.0,2.0,93,0.00,,,0.53,0.000000,,2013-06-20 05:12:00,
2013-06-20 00:22:00,74.0,72.0,-100.00,NE,56,2.0,2.0,93,0.00,,,0.53,0.000000,,2013-06-20 05:22:00,
2013-06-20 00:53:00,75.0,73.0,-100.00,NW,319,2.0,5.0,92,0.00,,,0.02,0.000000,,2013-06-20 05:53:00,
2013-06-20 01:02:00,75.0,73.0,-100.00,NW,319,2.0,5.0,92,0.00,,,0.02,0.000000,,2013-06-20 06:02:00,
2013-06-20 01:11:00,75.0,73.0,-100.00,NW,319,2.0,5.0,92,0.00,,,0.02,0.000000,,2013-06-20 06:11:00,
2013-06-20 01:22:00,75.0,73.0,-100.00,NW,319,2.0,5.0,92,0.00,,,0.02,0.000000,,2013-06-20 06:22:00,
2013-06-20 01:53:00,75.0,72.0,-100.00,ESE,110,2.0,3.0,91,0.00,,,0.00,0.000000,,2013-06-20 06:53:00,
2013-06-20 02:01:00,75.0,72.0,-100.00,ESE,110,2.0,3.0,91,0.00,,,0.00,0.000000,,2013-06-20 07:01:00,
2013-06-20 02:12:00,75.0,72.0,-100.00,ESE,110,2.0,3.0,91,0.00,,,0.00,0.000000,,2013-06-20 07:12:00,
2013-06-20 02:22:00,75.0,72.0,-100.00,ESE,110,2.0,3.0,91,0.00,,,0.00,0.000000,,2013-06-20 07:22:00,
2013-06-20 02:53:00,74.0,72.0,-100.00,NE,50,1.0,3.0,92,0.00,,,0.00,0.000000,,2013-06-20 07:53:00,
2013-06-20 03:02:00,74.0,72.0,-100.00,NE,50,1.0,3.0,92,0.00,,,0.00,0.000000,,2013-06-20 08:02:00,
2013-06-20 03:11:00,74.0,72.0,-100.00,NE,50,1.0,3.0,92,0.00,,,0.00,0.000000,,2013-06-20 08:11:00,
2013-06-20 03:22:00,74.0,72.0,-100.00,NE,50,1.0,3.0,92,0.00,,,0.00,0.000000,,2013-06-20 08:22:00,
2013-06-20 03:53:00,73.0,71.0,-100.00,SE,131,1.0,3.0,94,0.00,,,0.00,0.000000,,2013-06-20 08:53:00,
2013-06-20 04:02:00,73.0,71.0,-100.00,SE,131,1.0,3.0,94,0.00,,,0.00,0.000000,,2013-06-20 09:02:00,
2013-06-20 04:12:00,73.0,71.0,-100.00,SE,131,1.0,3.0,94,0.00,,,0.00,0.000000,,2013-06-20 09:12:00,
2013-06-20 04:22:00,73.0,71.0,-100.00,SE,131,1.0,3.0,94,0.00,,,0.00,0.000000,,2013-06-20 09:22:00,
2013-06-20 04:52:00,72.0,70.0,-100.00,NW,321,0.0,2.0,94,0.00,,,0.00,0.000000,,2013-06-20 09:52:00,
2013-06-20 05:01:00,72.0,70.0,-100.00,NW,321,0.0,2.0,94,0.00,,,0.00,0.000000,,2013-06-20 10:01:00,
2013-06-20 05:11:00,72.0,70.0,-100.00,NW,321,0.0,2.0,94,0.00,,,0.00,0.000000,,2013-06-20 10:11:00,
2013-06-20 05:22:00,72.0,70.0,-100.00,NW,321,0.0,2.0,94,0.00,,,0.00,0.000000,,2013-06-20 10:22:00,
2013-06-20 05:53:00,72.0,70.0,-100.00,NNW,332,1.0,2.0,94,0.00,,,0.00,0.000000,,2013-06-20 10:53:00,
2013-06-20 06:02:00,72.0,70.0,-100.00,NNW,332,1.0,2.0,94,0.00,,,0.00,0.000000,,2013-06-20 11:02:00,
2013-06-20 06:12:00,72.0,70.0,-100.00,NNW,332,1.0,2.0,94,0.00,,,0.00,0.000000,,2013-06-20 11:12:00,
2013-06-20 06:22:00,72.0,70.0,-100.00,NNW,332,1.0,2.0,94,0.00,,,0.00,0.000000,,2013-06-20 11:22:00,
2013-06-20 06:53:00,72.0,70.0,-100.00,ENE,77,0.0,2.0,95,0.00,,,0.00,9.000000,,2013-06-20 11:53:00,
2013-06-20 07:02:00,72.0,70.0,-100.00,ENE,77,0.0,2.0,95,0.00,,,0.00,9.000000,,2013-06-20 12:02:00,
2013-06-20 07:11:00,72.0,70.0,-100.00,ENE,77,0.0,2.0,95,0.00,,,0.00,9.000000,,2013-06-20 12:11:00,
2013-06-20 07:22:00,72.0,70.0,-100.00,ENE,77,0.0,2.0,95,0.00,,,0.00,9.000000,,2013-06-20 12:22:00,
2013-06-20 07:53:00,78.0,74.0,-100.00,NNE,19,2.0,4.0,88,0.00,,,0.00,148.000000,,2013-06-20 12:53:00,
2013-06-20 08:02:00,78.0,74.0,-100.00,NNE,19,2.0,4.0,88,0.00,,,0.00,148.000000,,2013-06-20 13:02:00,
2013-06-20 08:11:00,78.0,74.0,-100.00,NNE,19,2.0,4.0,88,0.00,,,0.00,148.000000,,2013-06-20 13:11:00,
2013-06-20 08:22:00,78.0,74.0,-100.00,NNE,19,2.0,4.0,88,0.00,,,0.00,148.000000,,2013-06-20 13:22:00,
2013-06-20 08:53:00,84.0,74.0,-100.00,North,358,1.0,5.0,72,0.00,,,0.00,384.000000,,2013-06-20 13:53:00,
2013-06-20 09:02:00,84.0,74.0,-100.00,North,358,1.0,5.0,72,0.00,,,0.00,384.000000,,2013-06-20 14:02:00,
2013-06-20 09:11:00,84.0,74.0,-100.00,North,358,1.0,5.0,72,0.00,,,0.00,384.000000,,2013-06-20 14:11:00,
2013-06-20 09:22:00,84.0,74.0,-100.00,North,358,1.0,5.0,72,0.00,,,0.00,384.000000,,2013-06-20 14:22:00,
2013-06-20 09:53:00,86.0,71.0,-100.00,NNE,12,4.0,7.0,62,0.00,,,0.00,617.000000,,2013-06-20 14:53:00,
2013-06-20 10:02:00,86.0,71.0,-100.00,NNE,12,4.0,7.0,62,0.00,,,0.00,617.000000,,2013-06-20 15:02:00,
2013-06-20 10:11:00,86.0,71.0,-100.00,NNE,12,4.0,7.0,62,0.00,,,0.00,617.000000,,2013-06-20 15:11:00,
2013-06-20 10:22:00,86.0,71.0,-100.00,NNE,12,4.0,7.0,62,0.00,,,0.00,617.000000,,2013-06-20 15:22:00,
2013-06-20 10:53:00,88.0,71.0,-100.00,NNE,33,4.0,9.0,58,0.00,,,0.00,802.000000,,2013-06-20 15:53:00,
2013-06-20 11:01:00,88.0,71.0,-100.00,NNE,33,4.0,9.0,58,0.00,,,0.00,802.000000,,2013-06-20 16:01:00,
2013-06-20 11:12:00,88.0,71.0,-100.00,NNE,33,4.0,9.0,58,0.00,,,0.00,802.000000,,2013-06-20 16:12:00,
2013-06-20 11:22:00,88.0,71.0,-100.00,NNE,33,4.0,9.0,58,0.00,,,0.00,802.000000,,2013-06-20 16:22:00,
2013-06-20 11:52:00,89.0,71.0,-100.00,NNE,28,3.0,8.0,55,0.00,,,0.00,762.000000,,2013-06-20 16:52:00,
2013-06-20 12:02:00,89.0,71.0,-100.00,NNE,28,3.0,8.0,55,0.00,,,0.00,762.000000,,2013-06-20 17:02:00,
2013-06-20 12:12:00,89.0,71.0,-100.00,NNE,28,3.0,8.0,55,0.00,,,0.00,762.000000,,2013-06-20 17:12:00,
2013-06-20 12:22:00,89.0,71.0,-100.00,NNE,28,3.0,8.0,55,0.00,,,0.00,762.000000,,2013-06-20 17:22:00,
2013-06-20 12:53:00,90.0,70.0,-100.00,North,7,3.0,9.0,52,0.00,,,0.00,1107.000000,,2013-06-20 17:53:00,
2013-06-20 13:01:00,90.0,70.0,-100.00,North,7,3.0,9.0,52,0.00,,,0.00,1107.000000,,2013-06-20 18:01:00,
2013-06-20 13:11:00,90.0,70.0,-100.00,North,7,3.0,9.0,52,0.00,,,0.00,1107.000000,,2013-06-20 18:11:00,
2013-06-20 13:22:00,90.0,70.0,-100.00,North,7,3.0,9.0,52,0.00,,,0.00,1107.000000,,2013-06-20 18:22:00,
2013-06-20 13:53:00,89.0,71.0,-100.00,East,88,4.0,8.0,55,0.00,,,0.00,769.000000,,2013-06-20 18:53:00,
2013-06-20 14:01:00,89.0,71.0,-100.00,East,88,4.0,8.0,55,0.00,,,0.00,769.000000,,2013-06-20 19:01:00,
2013-06-20 14:11:00,89.0,71.0,-100.00,East,88,4.0,8.0,55,0.00,,,0.00,769.000000,,2013-06-20 19:11:00,
2013-06-20 14:22:00,89.0,71.0,-100.00,East,88,4.0,8.0,55,0.00,,,0.00,769.000000,,2013-06-20 19:22:00,
2013-06-20 14:52:00,86.0,73.0,-100.00,SSE,149,6.0,11.0,65,0.00,,,0.00,526.000000,,2013-06-20 19:52:00,
2013-06-20 15:02:00,86.0,73.0,-100.00,SSE,149,6.0,11.0,65,0.00,,,0.00,526.000000,,2013-06-20 20:02:00,
2013-06-20 15:11:00,86.0,73.0,-100.00,SSE,149,6.0,11.0,65,0.00,,,0.00,526.000000,,2013-06-20 20:11:00,
2013-06-20 15:22:00,86.0,73.0,-100.00,SSE,149,6.0,11.0,65,0.00,,,0.00,526.000000,,2013-06-20 20:22:00,
2013-06-20 16:01:00,77.0,73.0,-100.00,NNE,17,4.0,10.0,88,0.20,,,0.20,169.000000,,2013-06-20 21:01:00,